• Join FlightAware (Why Join?)
  • Login
  • US Flag 
10:49AM EST


 

Airport Tracker/Info


-or-


 

Live Flight TrackerFlight Track Log ✈ CCA9574 ✈ 30-Jan-2014 ✈ ZYMD / MDG - ZBAA / PEK

Flight Track Log - Related Links

Times and Time Zones

All times are in EST time to prevent confusion due to time zone crossing. See the CCA9574 flight status page for this flight to view local times or setup timezone preferences in your user account.

Time Position Orientation Groundspeed Altitude Reporting Facility
EST Latitude Longitude Course Direction KTS MPH feet Rate Location/Type
01:49AM 44.4475 129.2813 250° West  Level Estimated
01:50AM 44.4283 129.2095 249° West  Level Estimated
01:51AM 44.4090 129.1378 249° West  Level Estimated
01:52AM 44.3897 129.0660 249° West  Level Estimated
01:53AM 44.3703 128.9944 249° West  Level Estimated
01:54AM 44.3508 128.9228 249° West  Level Estimated
01:55AM 44.3314 128.8512 249° West  Level Estimated
01:56AM 44.3119 128.7797 249° West  Level Estimated
01:57AM 44.2923 128.7082 249° West  Level Estimated
01:58AM 44.2727 128.6368 249° West  Level Estimated
01:59AM 44.2531 128.5654 249° West  Level Estimated
02:00AM 44.2334 128.4941 249° West  Level Estimated
02:01AM 44.2136 128.4228 249° West  Level Estimated
02:02AM 44.1939 128.3516 249° West  Level Estimated
02:03AM 44.1740 128.2804 249° West  Level Estimated
02:04AM 44.1541 128.2093 249° West  Level Estimated
02:05AM 44.1342 128.1382 249° West  Level Estimated
02:06AM 44.1143 128.0672 249° West  Level Estimated
02:07AM 44.0943 127.9962 249° West  Level Estimated
02:08AM 44.0742 127.9252 249° West  Level Estimated
02:09AM 44.0541 127.8543 249° West  Level Estimated
02:10AM 44.0340 127.7835 248° West  Level Estimated
02:11AM 44.0138 127.7127 248° West  Level Estimated
02:12AM 43.9936 127.6419 248° West  Level Estimated
02:13AM 43.9734 127.5712 248° West  Level Estimated
02:14AM 43.9530 127.5006 248° West  Level Estimated
02:15AM 43.9327 127.4300 248° West  Level Estimated
02:16AM 43.9123 127.3594 248° West  Level Estimated
02:17AM 43.8918 127.2889 248° West  Level Estimated
02:18AM 43.8714 127.2185 248° West  Level Estimated
02:19AM 43.8508 127.1480 248° West  Level Estimated
02:20AM 43.8303 127.0777 248° West  Level Estimated
02:21AM 43.8097 127.0074 248° West  Level Estimated
02:22AM 43.7890 126.9371 248° West  Level Estimated
02:23AM 43.7683 126.8669 248° West  Level Estimated
02:24AM 43.7476 126.7967 248° West  Level Estimated
02:25AM 43.7268 126.7266 248° West  Level Estimated
02:26AM 43.7060 126.6565 248° West  Level Estimated
02:27AM 43.6851 126.5865 248° West  Level Estimated
02:28AM 43.6642 126.5165 248° West  Level Estimated
02:29AM 43.6432 126.4466 248° West  Level Estimated
02:30AM 43.6222 126.3768 247° West  Level Estimated
02:31AM 43.6012 126.3069 247° West  Level Estimated
02:32AM 43.5801 126.2372 247° West  Level Estimated
02:33AM 43.5590 126.1674 247° West  Level Estimated
02:34AM 43.5378 126.0977 247° West  Level Estimated
02:35AM 43.5166 126.0281 247° West  Level Estimated
02:36AM 43.4954 125.9585 247° West  Level Estimated
02:37AM 43.4741 125.8890 247° West  Level Estimated
02:38AM 43.4527 125.8195 247° West  Level Estimated
02:39AM 43.4314 125.7501 247° West  Level Estimated
02:40AM 43.4099 125.6807 247° West  Level Estimated
02:41AM 43.3885 125.6114 247° West  Level Estimated
02:42AM 43.3670 125.5421 247° West  Level Estimated
02:43AM 43.3454 125.4728 247° West  Level Estimated
02:44AM 43.3238 125.4036 247° West  Level Estimated
02:45AM 43.3022 125.3345 247° West  Level Estimated
02:46AM 43.2805 125.2654 247° West  Level Estimated
02:47AM 43.2588 125.1964 247° West  Level Estimated
02:48AM 43.2371 125.1274 247° West  Level Estimated
02:49AM 43.2153 125.0584 247° West  Level Estimated
02:50AM 43.1934 124.9895 247° West  Level Estimated
02:51AM 43.1716 124.9207 246° West  Level Estimated
02:52AM 43.1496 124.8519 246° West  Level Estimated
02:53AM 43.1277 124.7832 246° West  Level Estimated
02:54AM 43.1057 124.7145 246° West  Level Estimated
02:55AM 43.0836 124.6458 246° West  Level Estimated
02:56AM 43.0616 124.5772 246° West  Level Estimated
02:57AM 43.0394 124.5087 246° West  Level Estimated
02:58AM 43.0173 124.4402 246° West  Level Estimated
02:59AM 42.9951 124.3717 246° West  Level Estimated
03:00AM 42.9728 124.3033 246° West  Level Estimated
03:01AM 42.9505 124.2350 246° West  Level Estimated
03:02AM 42.9282 124.1667 246° West  Level Estimated
03:03AM 42.9058 124.0984 246° West  Level Estimated
03:04AM 42.8834 124.0302 246° West  Level Estimated
03:05AM 42.8610 123.9621 246° West  Level Estimated
03:06AM 42.8385 123.8940 246° West  Level Estimated
03:07AM 42.8159 123.8259 246° West  Level Estimated
03:08AM 42.7934 123.7579 246° West  Level Estimated
03:09AM 42.7708 123.6900 246° West  Level Estimated
03:10AM 42.7481 123.6221 246° West  Level Estimated
03:11AM 42.7254 123.5542 246° West  Level Estimated
03:12AM 42.7027 123.4864 245° Southwest  Level Estimated
03:13AM 42.6799 123.4187 245° Southwest  Level Estimated
03:14AM 42.6571 123.3510 245° Southwest  Level Estimated
03:15AM 42.6343 123.2833 245° Southwest  Level Estimated
03:16AM 42.6114 123.2157 245° Southwest  Level Estimated
03:17AM 42.5885 123.1481 245° Southwest  Level Estimated
03:18AM 42.5655 123.0806 245° Southwest  Level Estimated
03:19AM 42.5425 123.0132 245° Southwest  Level Estimated
03:20AM 42.5194 122.9458 245° Southwest  Level Estimated
03:21AM 42.4963 122.8784 245° Southwest  Level Estimated
03:22AM 42.4732 122.8111 245° Southwest  Level Estimated
03:23AM 42.4500 122.7438 245° Southwest  Level Estimated
03:24AM 42.4268 122.6766 245° Southwest  Level Estimated
03:25AM 42.4036 122.6095 245° Southwest  Level Estimated
03:26AM 42.3803 122.5424 245° Southwest  Level Estimated
03:27AM 42.3570 122.4753 245° Southwest  Level Estimated
03:28AM 42.3336 122.4083 245° Southwest  Level Estimated
03:29AM 42.3102 122.3413 245° Southwest  Level Estimated
03:30AM 42.2868 122.2744 245° Southwest  Level Estimated
03:31AM 42.2633 122.2076 245° Southwest  Level Estimated
03:32AM 42.2398 122.1407 245° Southwest  Level Estimated
03:33AM 42.2162 122.0740 245° Southwest  Level Estimated
03:34AM 42.1926 122.0073 244° Southwest  Level Estimated
03:35AM 42.1690 121.9406 244° Southwest  Level Estimated
03:36AM 42.1453 121.8740 244° Southwest  Level Estimated
03:37AM 42.1216 121.8074 244° Southwest  Level Estimated
03:38AM 42.0979 121.7409 244° Southwest  Level Estimated
03:39AM 42.0741 121.6745 244° Southwest  Level Estimated
03:40AM 42.0502 121.6081 244° Southwest  Level Estimated
03:41AM 42.0264 121.5417 244° Southwest  Level Estimated
03:42AM 42.0025 121.4754 244° Southwest  Level Estimated
03:43AM 41.9785 121.4091 244° Southwest  Level Estimated
03:44AM 41.9546 121.3429 244° Southwest  Level Estimated
03:45AM 41.9305 121.2768 244° Southwest  Level Estimated
03:46AM 41.9065 121.2107 244° Southwest  Level Estimated
03:47AM 41.8824 121.1446 244° Southwest  Level Estimated
03:48AM 41.8583 121.0786 244° Southwest  Level Estimated
03:49AM 41.8341 121.0126 244° Southwest  Level Estimated
03:50AM 41.8099 120.9467 244° Southwest  Level Estimated
03:51AM 41.7856 120.8809 244° Southwest  Level Estimated
03:52AM 41.7614 120.8150 244° Southwest  Level Estimated
03:53AM 41.7370 120.7493 244° Southwest  Level Estimated
03:54AM 41.7127 120.6836 244° Southwest  Level Estimated
03:55AM 41.6883 120.6179 244° Southwest  Level Estimated
03:56AM 41.6639 120.5523 244° Southwest  Level Estimated
03:57AM 41.6394 120.4867 243° Southwest  Level Estimated
03:58AM 41.6149 120.4212 243° Southwest  Level Estimated
03:59AM 41.5903 120.3558 243° Southwest  Level Estimated
04:00AM 41.5658 120.2904 243° Southwest  Level Estimated
04:01AM 41.5411 120.2250 243° Southwest  Level Estimated
04:02AM 41.5165 120.1597 243° Southwest  Level Estimated
04:03AM 41.4918 120.0944 243° Southwest  Level Estimated
04:04AM 41.4671 120.0292 243° Southwest  Level Estimated
04:05AM 41.4423 119.9641 243° Southwest  Level Estimated
04:06AM 41.4175 119.8989 243° Southwest  Level Estimated
04:07AM 41.3927 119.8339 243° Southwest  Level Estimated
04:08AM 41.3678 119.7689 243° Southwest  Level Estimated
04:09AM 41.3429 119.7039 243° Southwest  Level Estimated
04:10AM 41.3179 119.6390 243° Southwest  Level Estimated
04:11AM 41.2930 119.5741 243° Southwest  Level Estimated
04:12AM 41.2679 119.5093 243° Southwest  Level Estimated
04:13AM 41.2429 119.4445 243° Southwest  Level Estimated
04:14AM 41.2178 119.3798 243° Southwest  Level Estimated
04:15AM 41.1927 119.3151 243° Southwest  Level Estimated
04:16AM 41.1675 119.2505 243° Southwest  Level Estimated
04:17AM 41.1423 119.1859 243° Southwest  Level Estimated
04:18AM 41.1171 119.1214 243° Southwest  Level Estimated
04:19AM 41.0918 119.0569 243° Southwest  Level Estimated
04:20AM 41.0665 118.9925 242° Southwest  Level Estimated
04:21AM 41.0411 118.9281 242° Southwest  Level Estimated
04:22AM 41.0157 118.8638 242° Southwest  Level Estimated
04:23AM 40.9903 118.7996 242° Southwest  Level Estimated
04:24AM 40.9649 118.7353 242° Southwest  Level Estimated
04:25AM 40.9394 118.6712 242° Southwest  Level Estimated
04:26AM 40.9139 118.6070 242° Southwest  Level Estimated
04:27AM 40.8883 118.5430 242° Southwest  Level Estimated
04:28AM 40.8627 118.4790 242° Southwest  Level Estimated
04:29AM 40.8371 118.4150 242° Southwest  Level Estimated
04:30AM 40.8114 118.3511 242° Southwest  Level Estimated
04:31AM 40.7857 118.2872 242° Southwest  Level Estimated
04:32AM 40.7600 118.2234 242° Southwest  Level Estimated
04:33AM 40.7342 118.1596 242° Southwest  Level Estimated
04:34AM 40.7084 118.0959 242° Southwest  Level Estimated
04:35AM 40.6825 118.0322 242° Southwest  Level Estimated
04:36AM 40.6567 117.9686 242° Southwest  Level Estimated
04:37AM 40.6308 117.9050 242° Southwest  Level Estimated
04:38AM 40.6048 117.8414 242° Southwest  Level Estimated
04:39AM 40.5788 117.7780 242° Southwest  Level Estimated
04:40AM 40.5528 117.7145 242° Southwest  Level Estimated
04:41AM 40.5268 117.6512 242° Southwest  Level Estimated
04:42AM 40.5007 117.5878 242° Southwest  Level Estimated
04:43AM 40.4746 117.5245 242° Southwest  Level Estimated
04:44AM 40.4484 117.4613 241° Southwest  Level Estimated
04:45AM 40.4222 117.3981 241° Southwest  Level Estimated
04:46AM 40.3960 117.3350 241° Southwest  Level Estimated
04:47AM 40.3698 117.2719 241° Southwest  Level Estimated
04:48AM 40.3435 117.2089 241° Southwest  Level Estimated
04:49AM 40.3171 117.1459 241° Southwest  Level Estimated
04:50AM 40.2908 117.0829 241° Southwest  Level Estimated
04:51AM 40.2644 117.0201 241° Southwest  Level Estimated
04:52AM 40.2380 116.9572 241° Southwest  Level Estimated
04:53AM 40.2115 116.8944 241° Southwest  Level Estimated
04:54AM 40.1850 116.8317 241° Southwest  Level Estimated
04:55AM 40.1585 116.7690 241° Southwest  Level Estimated
04:56AM 40.1319 116.7064 241° Southwest  Level Estimated
04:57AM 40.1053 116.6438 241° Southwest  Level Estimated
04:58AM 40.0801 116.5846 241° Southwest  Level Estimated
04:59AM 40.0801 116.5846 288° West  Level Estimated
05:00AM 40.0801 116.5846 288° West  Level Estimated
05:01AM 40.0801 116.5846 288° West  Level Estimated
05:02AM 40.0801 116.5846 288° West  Level Estimated
05:03AM 40.0801 116.5846 288° West  Level Estimated
05:04AM 40.0801 116.5846 288° West  Level Estimated
05:05AM 40.0801 116.5846 288° West  Level Estimated
05:06AM 40.0801 116.5846 288° West  Level Estimated
05:07AM 40.0801 116.5846 288° West  Level Estimated
05:08AM 40.0801 116.5846 288° West  Level Estimated
05:09AM 40.0801 116.5846 288° West  Level Estimated
05:10AM 40.0801 116.5846 288° West  Level Estimated
05:11AM 40.0801 116.5846 288° West  Level Estimated
05:12AM 40.0801 116.5846 288° West  Level Estimated
05:13AM 40.0801 116.5846 288° West  Level Estimated
05:14AM 40.0801 116.5846 288° West  Level Estimated